Airfield :
LOGIN :

Register | Disclaimer

   EN    FR    IT 

 










Legend :    VFR   Marginal VFR   IFR   Intensive IFR   Very Intensive IFR
Visi :
Ceiling :
>= 8 km
>= 3000ft
5 to 8 km
1000 to 3000 ft
1500m to 5 km
500 to 1000 ft
800 to 1500m
200 to 500 ft
< 800m
< 200 ft
Symbols :   Thunderstorms  Fog  Heavy snow  Heavy precipitations  Wind > 20 kt
SIGMETs :     Misc.  Thunderstorms  Icing  Turbulence  Mountain Waves  Volcanic Ashes






- Airport Elevation : 13 ft
- IATA code : LYX


EGMD - Lydd

CURRENT METAR :
  • 200550Z AUTO 18014KT 9999 SCT043/// 14/12 Q1003

EXPIRED METARs :
  • 200520Z AUTO 19016KT 9999 BKN041/// 15/12 Q1004
  • 200450Z AUTO 19016KT 9999 -RA SCT049/// 14/11 Q1004
  • 200420Z AUTO 18014KT 9999 -RA NCD 14/12 Q1004
  • 200350Z AUTO 19016KT 9999 NCD 14/11 Q1004
  • 200320Z AUTO 18016KT 9999 -RA NCD 14/11 Q1004

TAF TAF EGMD
Valid from the 20 at 06:00 until the 20 at 15:00 UTC


200456Z 2006/2015 19015KT 9999 FEW030
TEMPO 2006/2008 7000 RA BKN012
PROB40
TEMPO 2006/2015 22018G28KT
ATIS : +44 1797 322 422



MET'MAP, your aeronautical weather chart ! - Copyright ORBIFLY December 2007 - Disclaimer

ORBIFLY MET'MAP TEAM :

Programming & Development : Alexandra Zaïnal
Concept & original design : Baudouin d'Aumeries
Assistance for programming : Marc-Olivier Méhu
Technical & hardware support : Manuel Goepfert

Contact : metmap@orbifly.com




SOURCES & CREDITS :

   NOAA